Hawleyville, Connecticut
Current Conditions -  °F | °C
As of 1:53 PM on Friday 28 Nov 2014 (Local Time) from KDXR Reporting Station
Broken Clouds Broken Clouds  
Wind Chill: 26°   Ceiling: 3900
Heat Index: 33°   Visibility: 10mi
Dew Point: 17°   Wind: 8mph
Humidity: 52%   Direction: 270°W
Pressure: 30.12"   Gusts: NA
Location:  41.43°N, 73.36°W
Report Text: KDXR 281853Z 27007KT 10SM BKN039 01/M08 A3012 RMK AO2 SLP203 T00061083
Loading
Personal Weather Stations






























Interactive Weather Map New forecast layout! Learn more

10-Day Weather Forecast

Advertisements
Track Severe Weather on mobile